createdAt,value
2022-09-11T00:02:00.313Z,20.20
2022-09-11T00:04:29.854Z,20.20
2022-09-11T00:07:00.751Z,20.00
2022-09-11T00:09:30.493Z,19.90
2022-09-11T00:12:01.821Z,19.80
2022-09-11T00:14:31.263Z,19.60
2022-09-11T00:17:00.968Z,19.50
2022-09-11T00:19:30.376Z,19.30
2022-09-11T00:22:00.027Z,19.20
2022-09-11T00:24:29.804Z,19.10
2022-09-11T00:26:59.975Z,19.20
2022-09-11T00:29:33.126Z,19.10
2022-09-11T00:32:02.716Z,19.00
2022-09-11T00:34:32.295Z,18.90
2022-09-11T00:37:01.768Z,18.80
2022-09-11T00:39:31.201Z,18.80
2022-09-11T00:42:01.314Z,18.70
2022-09-11T00:44:48.839Z,18.60
2022-09-11T00:47:20.831Z,18.60
2022-09-11T00:49:52.754Z,18.60
2022-09-11T00:52:23.803Z,18.50
2022-09-11T00:54:57.121Z,18.50
2022-09-11T00:57:28.523Z,18.40
2022-09-11T00:59:59.419Z,18.40
2022-09-11T01:02:31.064Z,18.30
2022-09-11T01:05:00.705Z,18.30
2022-09-11T01:07:31.119Z,18.20
2022-09-11T01:10:00.866Z,18.20
2022-09-11T01:12:37.006Z,18.20
2022-09-11T01:15:09.759Z,18.10
2022-09-11T01:17:47.166Z,18.00
2022-09-11T01:20:23.437Z,18.00
2022-09-11T01:24:12.218Z,17.80
2022-09-11T01:26:55.321Z,17.70
2022-09-11T01:29:29.650Z,17.60
2022-09-11T01:32:02.102Z,17.50
2022-09-11T01:34:37.639Z,17.50
2022-09-11T01:37:09.088Z,17.30
2022-09-11T01:39:41.096Z,17.30
2022-09-11T01:42:15.452Z,17.30
2022-09-11T01:44:49.818Z,17.20
2022-09-11T01:47:20.328Z,17.20
2022-09-11T01:49:51.556Z,17.20
2022-09-11T01:52:22.321Z,17.10
2022-09-11T01:54:53.089Z,17.00
2022-09-11T01:57:25.690Z,16.90
2022-09-11T01:59:57.990Z,16.90
2022-09-11T02:02:30.157Z,16.90
2022-09-11T02:05:03.157Z,16.80
2022-09-11T02:07:33.833Z,16.80
2022-09-11T02:10:08.117Z,16.80
2022-09-11T02:12:41.624Z,16.90
2022-09-11T02:15:16.966Z,16.90
2022-09-11T02:17:50.055Z,17.00
2022-09-11T02:20:21.579Z,17.00
2022-09-11T02:22:51.430Z,16.90
2022-09-11T02:25:21.064Z,16.90
2022-09-11T02:27:50.983Z,16.80
2022-09-11T02:30:22.265Z,16.80
2022-09-11T02:32:51.692Z,16.80
2022-09-11T02:35:21.454Z,16.70
2022-09-11T02:37:54.758Z,16.70
2022-09-11T02:40:38.666Z,16.70
2022-09-11T02:43:20.778Z,16.60
2022-09-11T02:45:55.900Z,16.40
2022-09-11T02:48:33.088Z,16.30
2022-09-11T02:51:05.572Z,16.30
2022-09-11T02:53:37.669Z,16.20
2022-09-11T02:56:10.311Z,16.20
2022-09-11T02:58:42.023Z,16.10
2022-09-11T03:01:13.335Z,16.10
2022-09-11T03:03:45.353Z,16.10
2022-09-11T03:06:18.073Z,16.10
2022-09-11T03:08:47.875Z,16.20
2022-09-11T03:11:18.303Z,16.20
2022-09-11T03:13:48.346Z,16.20
2022-09-11T03:16:19.755Z,16.20
2022-09-11T03:18:49.443Z,16.20
2022-09-11T03:21:19.492Z,16.10
2022-09-11T03:23:49.257Z,16.10
2022-09-11T03:26:19.366Z,16.10
2022-09-11T03:28:49.186Z,16.00
2022-09-11T03:31:20.205Z,16.00
2022-09-11T03:33:49.642Z,16.00
2022-09-11T03:36:19.974Z,15.90
2022-09-11T03:38:49.506Z,15.80
2022-09-11T03:41:19.141Z,15.70
2022-09-11T03:43:49.214Z,15.80
2022-09-11T03:46:20.674Z,15.80
2022-09-11T03:48:50.140Z,15.80
2022-09-11T03:51:19.738Z,15.70
2022-09-11T03:53:49.195Z,15.70
2022-09-11T03:56:18.693Z,15.50
2022-09-11T03:58:48.704Z,15.50
2022-09-11T04:01:19.940Z,15.40
2022-09-11T04:03:49.397Z,15.40
2022-09-11T04:06:18.842Z,15.40
2022-09-11T04:08:48.783Z,15.40
2022-09-11T04:11:18.376Z,15.40
2022-09-11T04:13:47.811Z,15.40
2022-09-11T04:16:18.318Z,15.30
2022-09-11T04:18:50.130Z,15.30
2022-09-11T04:21:20.301Z,15.20
2022-09-11T04:23:54.043Z,15.20
2022-09-11T04:26:24.827Z,15.10
2022-09-11T04:28:54.287Z,15.20
2022-09-11T04:31:24.251Z,15.10
2022-09-11T04:33:58.008Z,15.10
2022-09-11T04:36:28.166Z,15.10
2022-09-11T04:38:58.690Z,15.20
2022-09-11T04:41:28.530Z,15.20
2022-09-11T04:44:03.890Z,15.20
2022-09-11T04:46:35.219Z,15.20
2022-09-11T04:49:09.943Z,15.20
2022-09-11T04:51:39.934Z,15.20
2022-09-11T04:54:09.710Z,15.20
2022-09-11T04:56:40.172Z,15.10
2022-09-11T04:59:13.830Z,15.00
2022-09-11T05:01:43.633Z,14.90
2022-09-11T05:04:14.824Z,14.90
2022-09-11T05:06:46.012Z,14.90
2022-09-11T05:09:15.559Z,14.80
2022-09-11T05:11:45.121Z,14.90
2022-09-11T05:14:14.791Z,14.80
2022-09-11T05:16:45.922Z,14.70
2022-09-11T05:19:17.061Z,14.60
2022-09-11T05:21:46.778Z,14.70
2022-09-11T05:24:16.453Z,14.60
2022-09-11T05:26:45.908Z,14.50
2022-09-11T05:29:16.058Z,14.50
2022-09-11T05:31:45.781Z,14.40
2022-09-11T05:34:16.836Z,14.40
2022-09-11T05:36:46.620Z,14.30
2022-09-11T05:39:16.055Z,14.40
2022-09-11T05:41:45.445Z,14.30
2022-09-11T05:44:15.182Z,14.30
2022-09-11T05:46:44.607Z,14.30
2022-09-11T05:49:14.876Z,14.30
2022-09-11T05:51:46.028Z,14.30
2022-09-11T05:54:16.008Z,14.30
2022-09-11T05:56:45.767Z,14.40
2022-09-11T05:59:18.314Z,14.40
2022-09-11T06:01:48.584Z,14.50
2022-09-11T06:04:19.160Z,14.50
2022-09-11T06:06:50.144Z,14.50
2022-09-11T06:09:19.633Z,14.40
2022-09-11T06:11:49.978Z,14.40
2022-09-11T06:14:19.460Z,14.30
2022-09-11T06:16:49.076Z,14.30
2022-09-11T06:19:19.109Z,14.20
2022-09-11T06:21:50.943Z,14.20
2022-09-11T06:24:20.746Z,14.10
2022-09-11T06:26:50.509Z,14.10
2022-09-11T06:29:20.447Z,14.10
2022-09-11T06:31:52.139Z,14.00
2022-09-11T06:34:21.611Z,13.90
2022-09-11T06:36:52.675Z,13.80
2022-09-11T06:39:23.492Z,13.80
2022-09-11T06:41:53.927Z,13.80
2022-09-11T06:44:23.328Z,13.80
2022-09-11T06:46:52.725Z,13.80
2022-09-11T06:49:22.383Z,13.90
2022-09-11T06:51:54.620Z,13.80
2022-09-11T06:54:24.145Z,13.70
2022-09-11T06:56:53.673Z,13.80
2022-09-11T06:59:24.483Z,13.70
2022-09-11T07:01:54.000Z,13.70
2022-09-11T07:04:24.451Z,13.70
2022-09-11T07:06:55.522Z,13.60
2022-09-11T07:09:24.937Z,13.60
2022-09-11T07:11:54.502Z,13.60
2022-09-11T07:14:24.249Z,13.50
2022-09-11T07:16:55.669Z,13.50
2022-09-11T07:19:27.035Z,13.50
2022-09-11T07:21:59.264Z,13.50
2022-09-11T07:24:29.326Z,13.50
2022-09-11T07:26:59.451Z,13.50
2022-09-11T07:29:30.040Z,13.60
2022-09-11T07:31:59.700Z,13.60
2022-09-11T07:34:29.143Z,13.50
2022-09-11T07:37:00.243Z,13.40
2022-09-11T07:39:29.619Z,13.40
2022-09-11T07:41:59.096Z,13.30
2022-09-11T07:44:28.514Z,13.30
2022-09-11T07:46:57.927Z,13.30
2022-09-11T07:49:27.996Z,13.30
2022-09-11T07:51:57.488Z,13.40
2022-09-11T07:54:29.621Z,13.40
2022-09-11T07:56:59.264Z,13.40
2022-09-11T07:59:28.921Z,13.40
2022-09-11T08:01:58.416Z,13.40
2022-09-11T08:04:28.418Z,13.40
2022-09-11T08:06:57.861Z,13.40
2022-09-11T08:09:29.384Z,13.30
2022-09-11T08:11:59.596Z,13.20
2022-09-11T08:14:29.467Z,13.20
2022-09-11T08:16:59.077Z,13.10
2022-09-11T08:19:28.699Z,13.10
2022-09-11T08:21:58.196Z,13.00
2022-09-11T08:24:29.645Z,13.10
2022-09-11T08:26:59.175Z,13.10
2022-09-11T08:29:28.910Z,13.10
2022-09-11T08:32:02.194Z,13.10
2022-09-11T08:34:31.931Z,13.00
2022-09-11T08:37:01.366Z,12.90
2022-09-11T08:39:32.412Z,12.90
2022-09-11T08:42:04.826Z,12.90
2022-09-11T08:44:40.777Z,13.00
2022-09-11T08:47:12.706Z,13.00
2022-09-11T08:49:44.052Z,12.90
2022-09-11T08:52:15.548Z,12.90
2022-09-11T08:54:48.737Z,12.90
2022-09-11T08:57:20.581Z,12.90
2022-09-11T09:00:02.829Z,12.90
2022-09-11T09:02:43.105Z,12.90
2022-09-11T09:05:17.594Z,12.90
2022-09-11T09:07:53.570Z,12.90
2022-09-11T09:10:33.413Z,12.80
2022-09-11T09:13:06.394Z,12.90
2022-09-11T09:15:40.371Z,12.90
2022-09-11T09:18:11.163Z,12.90
2022-09-11T09:20:42.758Z,12.90
2022-09-11T09:23:19.440Z,12.80
2022-09-11T09:25:53.535Z,12.80
2022-09-11T09:28:25.429Z,12.80
2022-09-11T09:30:58.095Z,12.80
2022-09-11T09:33:37.260Z,12.80
2022-09-11T09:36:15.578Z,12.90
2022-09-11T09:38:45.949Z,12.90
2022-09-11T09:41:38.084Z,13.00
2022-09-11T09:44:15.483Z,13.00
2022-09-11T09:46:51.220Z,13.00
2022-09-11T09:49:24.638Z,13.00
2022-09-11T09:51:57.367Z,12.90
2022-09-11T09:54:31.589Z,12.90
2022-09-11T09:57:04.492Z,12.80
2022-09-11T09:59:36.922Z,12.80
2022-09-11T10:02:07.086Z,12.70
2022-09-11T10:04:37.017Z,12.70
2022-09-11T10:07:11.390Z,12.70
2022-09-11T10:09:47.571Z,12.70
2022-09-11T10:12:20.668Z,12.70
2022-09-11T10:14:53.351Z,12.80
2022-09-11T10:17:24.046Z,12.80
2022-09-11T10:19:55.799Z,12.80
2022-09-11T10:22:27.946Z,12.90
2022-09-11T10:25:05.199Z,12.90
2022-09-11T10:27:37.611Z,13.00
2022-09-11T10:30:07.431Z,13.00
2022-09-11T10:32:38.755Z,13.00
2022-09-11T10:35:11.926Z,13.00
2022-09-11T10:37:41.728Z,12.90
2022-09-11T10:40:21.677Z,12.90
2022-09-11T10:42:55.066Z,13.00
2022-09-11T10:45:25.138Z,12.90
2022-09-11T10:47:54.627Z,12.90
2022-09-11T10:50:25.946Z,13.00
2022-09-11T10:53:00.548Z,13.10
2022-09-11T10:55:31.926Z,13.20
2022-09-11T10:58:06.138Z,13.20
2022-09-11T11:00:36.507Z,13.30
2022-09-11T11:03:07.661Z,13.30
2022-09-11T11:05:43.418Z,13.40
2022-09-11T11:08:19.213Z,13.40
2022-09-11T11:11:04.500Z,13.50
2022-09-11T11:13:47.803Z,13.50
2022-09-11T11:16:20.863Z,13.60
2022-09-11T11:18:55.349Z,13.70
2022-09-11T11:21:29.661Z,13.80
2022-09-11T11:24:06.406Z,14.00
2022-09-11T11:26:41.167Z,14.10
2022-09-11T11:29:20.658Z,14.20
2022-09-11T11:31:56.880Z,14.30
2022-09-11T11:34:31.207Z,14.50
2022-09-11T11:37:04.183Z,14.60
2022-09-11T11:39:35.529Z,14.80
2022-09-11T11:42:13.011Z,14.90
2022-09-11T11:44:48.167Z,15.00
2022-09-11T11:47:19.051Z,15.10
2022-09-11T11:49:56.031Z,15.30
2022-09-11T11:52:37.356Z,15.40
2022-09-11T11:55:14.080Z,15.50
2022-09-11T11:57:45.275Z,15.60
2022-09-11T12:00:17.422Z,15.80
2022-09-11T12:02:50.197Z,15.90
2022-09-11T12:05:21.213Z,16.10
2022-09-11T12:07:51.377Z,16.20
2022-09-11T12:10:23.735Z,16.40
2022-09-11T12:12:55.553Z,16.40
2022-09-11T12:15:28.346Z,16.50
2022-09-11T12:18:01.865Z,16.60
2022-09-11T12:20:35.885Z,16.80
2022-09-11T12:23:06.412Z,16.90
2022-09-11T12:26:07.146Z,17.10
2022-09-11T12:28:36.819Z,17.20
2022-09-11T12:31:09.025Z,17.40
2022-09-11T12:33:51.735Z,17.50
2022-09-11T12:36:24.086Z,17.70
2022-09-11T12:38:56.268Z,17.80
2022-09-11T12:41:28.294Z,17.90
2022-09-11T12:43:58.347Z,18.10
2022-09-11T12:46:46.338Z,18.30
2022-09-11T12:49:22.983Z,18.40
2022-09-11T12:51:54.669Z,18.70
2022-09-11T12:54:25.424Z,18.90
2022-09-11T12:56:55.961Z,19.00
2022-09-11T12:59:26.878Z,19.30
2022-09-11T13:01:57.103Z,19.50
2022-09-11T13:04:29.559Z,19.70
2022-09-11T13:07:00.362Z,19.80
2022-09-11T13:09:31.208Z,20.00
2022-09-11T13:12:21.644Z,20.00
2022-09-11T13:14:51.586Z,20.10
2022-09-11T13:17:30.860Z,20.10
2022-09-11T13:20:21.604Z,20.10
2022-09-11T13:22:56.141Z,20.10
2022-09-11T13:25:28.518Z,20.00
2022-09-11T13:27:59.108Z,20.00
2022-09-11T13:30:29.733Z,20.00
2022-09-11T13:33:04.316Z,20.10
2022-09-11T13:35:35.727Z,20.20
2022-09-11T13:38:07.042Z,20.40
2022-09-11T13:40:41.227Z,20.50
2022-09-11T13:43:13.832Z,20.50
2022-09-11T13:45:43.585Z,20.60
2022-09-11T13:48:21.832Z,20.70
2022-09-11T13:50:53.185Z,20.80
2022-09-11T13:53:23.610Z,20.90
2022-09-11T13:55:53.043Z,21.10
2022-09-11T13:58:25.359Z,21.20
2022-09-11T14:00:57.106Z,21.30
2022-09-11T14:03:28.974Z,21.50
2022-09-11T14:06:01.582Z,21.60
2022-09-11T14:08:33.253Z,21.70
2022-09-11T14:11:05.512Z,21.80
2022-09-11T14:13:48.574Z,21.80
2022-09-11T14:16:22.655Z,21.90
2022-09-11T14:18:56.379Z,22.00
2022-09-11T14:21:28.730Z,22.00
2022-09-11T14:23:59.099Z,22.20
2022-09-11T14:26:42.012Z,22.30
2022-09-11T14:29:25.088Z,22.30
2022-09-11T14:31:55.161Z,22.40
2022-09-11T14:34:27.918Z,22.60
2022-09-11T14:37:01.120Z,22.70
2022-09-11T14:39:32.509Z,22.80
2022-09-11T14:42:02.456Z,22.90
2022-09-11T14:44:33.443Z,23.00
2022-09-11T14:47:02.867Z,23.10
2022-09-11T14:49:32.289Z,23.10
2022-09-11T14:52:03.387Z,23.20
2022-09-11T14:54:33.109Z,23.30
2022-09-11T14:57:04.331Z,23.40
2022-09-11T14:59:33.759Z,23.40
2022-09-11T15:02:03.370Z,23.50
2022-09-11T15:04:32.914Z,23.60
2022-09-11T15:07:05.490Z,23.70
2022-09-11T15:09:36.807Z,23.80
2022-09-11T15:12:07.043Z,23.80
2022-09-11T15:14:55.706Z,23.80
2022-09-11T15:17:26.037Z,23.90
2022-09-11T15:19:55.460Z,24.10
2022-09-11T15:22:26.750Z,24.20
2022-09-11T15:24:57.400Z,24.30
2022-09-11T15:27:27.219Z,24.50
2022-09-11T15:29:56.928Z,24.60
2022-09-11T15:32:26.341Z,24.70
2022-09-11T15:34:56.120Z,24.80
2022-09-11T15:37:27.156Z,24.90
2022-09-11T15:39:56.713Z,25.00
2022-09-11T15:42:26.182Z,25.10
2022-09-11T15:44:56.758Z,25.30
2022-09-11T15:47:26.172Z,25.40
2022-09-11T15:49:55.615Z,25.50
2022-09-11T15:52:27.786Z,25.60
2022-09-11T15:54:57.339Z,25.70
2022-09-11T15:57:26.985Z,25.70
2022-09-11T15:59:56.448Z,25.80
2022-09-11T16:02:26.036Z,25.90
2022-09-11T16:04:56.121Z,26.10
2022-09-11T16:07:27.097Z,26.20
2022-09-11T16:09:56.848Z,26.30
2022-09-11T16:12:26.386Z,26.50
2022-09-11T16:14:56.128Z,26.50
2022-09-11T16:17:31.594Z,26.60
2022-09-11T16:20:01.534Z,26.70
2022-09-11T16:22:35.124Z,26.90
2022-09-11T16:25:04.831Z,26.80
2022-09-11T16:27:35.255Z,26.80
2022-09-11T16:30:42.124Z,27.00
2022-09-11T16:32:55.383Z,27.40
2022-09-11T16:35:26.215Z,28.10
2022-09-11T16:37:58.216Z,28.50
2022-09-11T16:40:27.720Z,28.60
2022-09-11T16:42:57.124Z,28.90
2022-09-11T16:45:26.820Z,28.80
2022-09-11T16:47:57.783Z,28.70
2022-09-11T16:50:27.257Z,28.60
2022-09-11T16:52:58.527Z,28.60
2022-09-11T16:55:27.937Z,28.80
2022-09-11T16:57:57.411Z,28.70
2022-09-11T17:00:26.921Z,28.60
2022-09-11T17:02:56.480Z,28.70
2022-09-11T17:05:25.926Z,28.30
2022-09-11T17:07:55.379Z,28.10
2022-09-11T17:10:26.403Z,28.30
2022-09-11T17:12:56.882Z,28.70
2022-09-11T17:15:27.292Z,28.90
2022-09-11T17:17:56.844Z,29.10
2022-09-11T17:20:26.292Z,29.20
2022-09-11T17:22:58.229Z,29.30
2022-09-11T17:25:30.126Z,29.60
2022-09-11T17:27:59.753Z,29.60
2022-09-11T17:30:29.325Z,29.90
2022-09-11T17:32:59.913Z,29.70
2022-09-11T17:35:29.303Z,29.90
2022-09-11T17:37:58.760Z,30.00
2022-09-11T17:40:29.815Z,30.10
2022-09-11T17:42:59.976Z,30.00
2022-09-11T17:45:29.538Z,29.90
2022-09-11T17:48:05.166Z,30.00
2022-09-11T17:50:35.751Z,29.90
2022-09-11T17:53:06.641Z,29.90
2022-09-11T17:55:37.752Z,29.70
2022-09-11T17:58:07.927Z,29.50
2022-09-11T18:00:37.487Z,29.80
2022-09-11T18:03:08.413Z,29.30
2022-09-11T18:05:43.356Z,29.20
2022-09-11T18:08:13.481Z,29.80
2022-09-11T18:10:51.655Z,30.30
2022-09-11T18:13:22.823Z,30.50
2022-09-11T18:15:52.712Z,29.50
2022-09-11T18:18:22.368Z,28.80
2022-09-11T18:20:54.584Z,29.00
2022-09-11T18:23:25.494Z,29.40
2022-09-11T18:25:59.718Z,29.40
2022-09-11T18:28:29.937Z,29.40
2022-09-11T18:31:03.308Z,29.60
2022-09-11T18:33:32.962Z,29.90
2022-09-11T18:36:05.875Z,30.30
2022-09-11T18:38:35.907Z,30.50
2022-09-11T18:41:07.002Z,30.40
2022-09-11T18:43:36.502Z,30.30
2022-09-11T18:46:05.962Z,29.80
2022-09-11T18:48:35.800Z,29.70
2022-09-11T18:51:08.411Z,29.60
2022-09-11T18:53:38.144Z,29.70
2022-09-11T18:56:09.398Z,29.70
2022-09-11T18:58:40.952Z,29.80
2022-09-11T19:01:12.576Z,30.00
2022-09-11T19:03:42.694Z,30.10
2022-09-11T19:06:12.805Z,30.20
2022-09-11T19:08:43.172Z,29.90
2022-09-11T19:11:15.673Z,29.30
2022-09-11T19:13:45.553Z,29.10
2022-09-11T19:16:15.424Z,28.90
2022-09-11T19:18:45.144Z,28.70
2022-09-11T19:21:16.494Z,28.70
2022-09-11T19:23:46.995Z,28.60
2022-09-11T19:26:19.928Z,28.40
2022-09-11T19:28:49.904Z,28.30
2022-09-11T19:31:21.887Z,28.20
2022-09-11T19:33:51.966Z,28.00
2022-09-11T19:36:22.176Z,27.80
2022-09-11T19:38:52.531Z,27.70
2022-09-11T19:41:24.462Z,27.50
2022-09-11T19:43:54.763Z,27.30
2022-09-11T19:46:25.617Z,27.10
2022-09-11T19:48:55.645Z,27.10
2022-09-11T19:51:25.992Z,27.00
2022-09-11T19:53:56.893Z,26.90
2022-09-11T19:56:28.494Z,26.80
2022-09-11T19:58:59.800Z,26.70
2022-09-11T20:01:31.202Z,26.70
2022-09-11T20:04:01.279Z,26.60
2022-09-11T20:06:31.369Z,26.50
2022-09-11T20:09:29.791Z,26.40
2022-09-11T20:11:52.130Z,26.30
2022-09-11T20:14:21.592Z,26.20
2022-09-11T20:16:51.004Z,26.10
2022-09-11T20:19:21.202Z,26.10
2022-09-11T20:21:51.104Z,25.90
2022-09-11T20:24:20.524Z,25.80
2022-09-11T20:26:51.549Z,25.80
2022-09-11T20:29:20.989Z,25.80
2022-09-11T20:31:51.748Z,25.70
2022-09-11T20:34:22.970Z,25.70
2022-09-11T20:36:52.447Z,25.60
2022-09-11T20:39:22.267Z,25.60
2022-09-11T20:41:53.323Z,25.50
2022-09-11T20:44:22.748Z,25.40
2022-09-11T20:46:52.223Z,25.30
2022-09-11T20:49:22.086Z,25.20
2022-09-11T20:51:51.484Z,25.10
2022-09-11T20:54:20.919Z,25.00
2022-09-11T20:56:50.445Z,24.90
2022-09-11T20:59:22.103Z,24.70
2022-09-11T21:01:51.900Z,24.70
2022-09-11T21:04:21.554Z,24.70
2022-09-11T21:06:51.058Z,24.50
2022-09-11T21:09:20.498Z,24.50
2022-09-11T21:11:49.936Z,24.40
2022-09-11T21:14:19.427Z,24.30
2022-09-11T21:16:50.561Z,24.20
2022-09-11T21:19:20.024Z,24.20
2022-09-11T21:21:49.891Z,24.10
2022-09-11T21:24:19.278Z,24.10
2022-09-11T21:26:48.787Z,24.00
2022-09-11T21:29:18.431Z,23.90
2022-09-11T21:31:48.047Z,23.90
2022-09-11T21:34:25.787Z,23.80
2022-09-11T21:36:55.180Z,23.80
2022-09-11T21:39:25.057Z,23.70
2022-09-11T21:41:54.687Z,23.70
2022-09-11T21:44:24.103Z,23.60
2022-09-11T21:46:53.730Z,23.50
2022-09-11T21:49:24.884Z,23.50
2022-09-11T21:51:54.372Z,23.40
2022-09-11T21:54:23.937Z,23.40
2022-09-11T21:56:53.691Z,23.40
2022-09-11T21:59:43.975Z,23.20
2022-09-11T22:02:13.837Z,23.20
2022-09-11T22:04:45.301Z,23.10
2022-09-11T22:07:18.256Z,23.00
2022-09-11T22:09:48.105Z,22.90
2022-09-11T22:12:18.475Z,22.90
2022-09-11T22:14:49.520Z,22.90
2022-09-11T22:17:18.964Z,22.80
2022-09-11T22:19:50.167Z,22.80
2022-09-11T22:22:20.132Z,22.70
2022-09-11T22:24:49.571Z,22.60
2022-09-11T22:27:19.132Z,22.50
2022-09-11T22:29:48.571Z,22.40
2022-09-11T22:32:18.396Z,22.40
2022-09-11T22:34:47.900Z,22.30
2022-09-11T22:37:19.056Z,22.20
2022-09-11T22:39:48.715Z,22.10
2022-09-11T22:42:18.229Z,22.10
2022-09-11T22:44:47.584Z,22.00
2022-09-11T22:47:17.034Z,21.90
2022-09-11T22:49:46.500Z,21.90
2022-09-11T22:52:17.110Z,21.80
2022-09-11T22:54:49.285Z,21.70
2022-09-11T22:57:18.759Z,21.70
2022-09-11T22:59:49.113Z,21.60
2022-09-11T23:02:18.949Z,21.60
2022-09-11T23:05:08.628Z,21.50
2022-09-11T23:07:36.962Z,21.50
2022-09-11T23:10:10.391Z,21.40
2022-09-11T23:12:39.903Z,21.40
2022-09-11T23:15:09.992Z,21.40
2022-09-11T23:17:39.463Z,21.30
2022-09-11T23:20:09.269Z,21.30
2022-09-11T23:22:38.927Z,21.30
2022-09-11T23:25:11.803Z,21.20
2022-09-11T23:27:41.267Z,21.20
2022-09-11T23:30:11.130Z,21.10
2022-09-11T23:32:42.038Z,21.00
2022-09-11T23:35:11.957Z,21.00
2022-09-11T23:37:45.339Z,20.90
2022-09-11T23:40:17.284Z,20.90
2022-09-11T23:42:46.749Z,20.90
2022-09-11T23:45:17.226Z,20.80
2022-09-11T23:47:46.884Z,20.70
2022-09-11T23:50:16.339Z,20.70
2022-09-11T23:52:45.784Z,20.60
2022-09-11T23:55:18.122Z,20.60
2022-09-11T23:57:48.480Z,20.60
